Calvin, North Dakota
Current Conditions -  °F | °C
As of 7:35 AM on Wednesday 22 Oct 2014 (Local Time) from KD55 Reporting Station
Clear Clear  
Wind Chill: 55°   Ceiling: Unl
Heat Index: 55°   Visibility: 10mi
Dew Point: 41°   Wind: 22mph
Humidity: 58%   Direction: 180°S
Pressure: 29.71"   Gusts: 31mph
Location:  48.85°N, 98.94°W
Report Text: KD55 221235Z AUTO 18019G27KT 10SM CLR 13/05 A2971 RMK AO2 LTG DSNT SW
Loading
Personal Weather Stations






























Interactive Weather Map
Tropical Storm Tracking
New forecast layout! Learn more

10-Day Weather Forecast

Advertisements
Track Severe Weather on mobile